Time;durP1;ratioP1;P1;durP2;ratioP2;P2;SDS_P1;SDS_P2;PMS_P1;PMS_P2;Temp;Humidity;BMP_temperature;BMP_pressure;BME280_temperature;BME280_humidity;BME280_pressure;Samples;Min_cycle;Max_cycle;Signal;HPM_P1;HPM_P2
2022/11/30 00:00:08;;;;;;;22.60;12.85;;;;;;;9.52;79.19;99845.94;339573;29;1805;-72
2022/11/30 00:00:21;;;;;;;21.90;12.52;;;;;;;9.51;79.10;99847.66;340682;29;1179;-72
2022/11/30 00:00:34;;;;;;;23.48;13.13;;;;;;;9.52;79.15;99848.53;340836;29;1655;-72
2022/11/30 00:00:46;;;;;;;20.95;11.93;;;;;;;9.52;79.40;99845.94;340979;29;976;-72
2022/11/30 00:01:07;;;;;;;18.58;10.40;;;;;;;9.53;79.11;99843.28;341089;29;1053;-72
2022/11/30 00:01:21;;;;;;;20.70;11.55;;;;;;;9.53;79.33;99847.63;340758;29;1733;-72
2022/11/30 00:01:33;;;;;;;22.33;12.60;;;;;;;9.54;79.04;99847.59;339648;29;1188;-72
2022/11/30 00:01:45;;;;;;;23.73;13.20;;;;;;;9.51;79.03;99847.66;339667;28;1799;-72
2022/11/30 00:01:57;;;;;;;22.52;13.48;;;;;;;9.48;78.91;99841.72;342083;28;1689;-72
2022/11/30 00:02:09;;;;;;;22.40;13.40;;;;;;;9.48;78.97;99841.72;342771;28;1225;-72
2022/11/30 00:02:21;;;;;;;23.92;13.55;;;;;;;9.46;79.09;99844.34;343592;28;1323;-72
2022/11/30 00:02:34;;;;;;;24.00;13.57;;;;;;;9.43;79.20;99844.41;344162;28;1176;-72
2022/11/30 00:02:48;;;;;;;23.13;12.82;;;;;;;9.44;79.38;99851.31;342678;28;2120;-72
2022/11/30 00:03:00;;;;;;;23.02;12.68;;;;;;;9.45;79.06;99847.81;343373;28;928;-72
2022/11/30 00:03:12;;;;;;;22.73;12.18;;;;;;;9.48;79.22;99841.72;343545;28;1274;-72
2022/11/30 00:03:25;;;;;;;20.15;11.30;;;;;;;9.49;78.98;99844.25;343498;28;1267;-72
2022/11/30 00:03:37;;;;;;;18.38;11.00;;;;;;;9.50;79.38;99843.38;343725;28;1534;-72
2022/11/30 00:03:54;;;;;;;19.77;11.65;;;;;;;9.52;79.37;99844.19;342934;28;1923;-72
2022/11/30 00:04:07;;;;;;;22.02;12.82;;;;;;;9.52;78.78;99839.00;343622;28;1135;-72
2022/11/30 00:04:18;;;;;;;21.55;12.95;;;;;;;9.49;78.82;99844.25;343603;28;1297;-72
2022/11/30 00:04:30;;;;;;;21.10;12.93;;;;;;;9.48;78.98;99842.56;343684;28;1047;-72
2022/11/30 00:04:42;;;;;;;21.95;13.00;;;;;;;9.49;78.69;99840.81;343589;28;1115;-72
2022/11/30 00:04:55;;;;;;;22.58;13.35;;;;;;;9.50;78.88;99843.38;343641;28;1195;-72
2022/11/30 00:05:07;;;;;;;23.65;13.27;;;;;;;9.51;78.88;99842.47;342212;28;2160;-72
2022/11/30 00:05:19;;;;;;;25.23;13.05;;;;;;;9.52;78.66;99843.34;342528;28;1400;-72
2022/11/30 00:05:32;;;;;;;25.33;12.82;;;;;;;9.49;78.69;99849.44;343421;28;1549;-72
2022/11/30 00:05:44;;;;;;;26.33;13.07;;;;;;;9.53;78.63;99845.03;343495;28;1186;-72
2022/11/30 00:06:02;;;;;;;25.08;12.98;;;;;;;9.52;78.79;99844.19;342341;28;768;-72
2022/11/30 00:06:21;;;;;;;23.30;12.55;;;;;;;9.54;78.76;99839.81;342174;28;1785;-72
2022/11/30 00:06:33;;;;;;;20.77;12.05;;;;;;;9.56;78.66;99842.38;342573;28;1072;-72
2022/11/30 00:06:45;;;;;;;23.02;12.70;;;;;;;9.56;78.41;99845.81;342598;28;1322;-72
2022/11/30 00:06:58;;;;;;;24.02;13.35;;;;;;;9.57;78.64;99847.50;342315;28;2293;-72
2022/11/30 00:07:10;;;;;;;22.95;12.90;;;;;;;9.56;78.29;99840.63;343245;28;1898;-72
2022/11/30 00:07:23;;;;;;;21.83;12.40;;;;;;;9.53;78.26;99838.09;343156;28;1246;-72
2022/11/30 00:07:34;;;;;;;22.90;12.75;;;;;;;9.53;78.58;99845.88;343736;28;1058;-72
2022/11/30 00:07:48;;;;;;;24.13;13.35;;;;;;;9.54;78.79;99842.41;344106;28;1151;-72
2022/11/30 00:08:00;;;;;;;23.67;13.60;;;;;;;9.50;78.49;99840.78;343383;28;1160;-72
2022/11/30 00:08:12;;;;;;;23.42;13.05;;;;;;;9.42;78.47;99842.72;343978;28;1891;-72
2022/11/30 00:08:28;;;;;;;23.30;12.82;;;;;;;9.36;78.78;99835.94;344714;28;1788;-72
2022/11/30 00:08:40;;;;;;;24.52;13.20;;;;;;;9.35;79.32;99841.16;344890;28;923;-72
2022/11/30 00:08:53;;;;;;;26.42;13.10;;;;;;;9.35;79.44;99843.75;344690;28;1863;-72
2022/11/30 00:09:05;;;;;;;27.33;13.43;;;;;;;9.30;79.32;99843.03;343972;28;1701;-72
2022/11/30 00:09:18;;;;;;;25.45;13.70;;;;;;;9.33;79.62;99838.59;343803;28;1918;-72
2022/11/30 00:09:30;;;;;;;24.08;13.20;;;;;;;9.35;79.38;99836.81;343848;28;1186;-72
2022/11/30 00:09:42;;;;;;;21.48;12.15;;;;;;;9.38;79.30;99833.31;343888;28;1335;-72
2022/11/30 00:09:54;;;;;;;21.33;11.68;;;;;;;9.40;79.49;99844.50;343607;28;1163;-72
2022/11/30 00:10:07;;;;;;;21.55;11.90;;;;;;;9.43;79.20;99835.78;343218;28;2100;-72
2022/11/30 00:10:20;;;;;;;21.17;11.77;;;;;;;9.44;79.67;99838.34;342716;28;1599;-72
2022/11/30 00:10:32;;;;;;;21.90;11.80;;;;;;;9.46;79.34;99839.16;343203;28;1867;-72
2022/11/30 00:10:44;;;;;;;23.00;12.25;;;;;;;9.48;79.45;99839.13;342511;28;1868;-72
2022/11/30 00:10:56;;;;;;;23.90;12.80;;;;;;;9.48;79.30;99842.56;342490;28;2244;-72
2022/11/30 00:11:12;;;;;;;22.95;12.70;;;;;;;9.46;79.13;99839.16;343133;28;1710;-72
2022/11/30 00:11:27;;;;;;;22.60;12.45;;;;;;;9.45;79.31;99841.78;342858;28;1692;-72
2022/11/30 00:11:39;;;;;;;23.85;12.70;;;;;;;9.44;79.33;99835.75;343235;28;1858;-72
2022/11/30 00:11:51;;;;;;;23.60;13.00;;;;;;;9.43;79.24;99833.19;344549;28;2959;-72
2022/11/30 00:12:03;;;;;;;23.38;13.20;;;;;;;9.44;79.18;99832.28;343712;28;1246;-72
2022/11/30 00:12:15;;;;;;;22.75;13.50;;;;;;;9.39;79.35;99840.19;344376;28;1994;-72
2022/11/30 00:12:27;;;;;;;22.30;13.30;;;;;;;9.40;79.23;99839.31;343499;28;1642;-72
2022/11/30 00:12:43;;;;;;;21.42;13.07;;;;;;;9.40;79.65;99834.13;343485;28;776;-72
2022/11/30 00:12:55;;;;;;;21.95;12.77;;;;;;;9.43;79.44;99839.22;343867;28;947;-72
2022/11/30 00:13:08;;;;;;;23.50;12.63;;;;;;;9.42;79.42;99837.53;342081;28;1835;-72
2022/11/30 00:13:20;;;;;;;23.60;12.85;;;;;;;9.43;79.19;99844.41;341605;28;1312;-72
2022/11/30 00:13:32;;;;;;;24.38;13.13;;;;;;;9.45;79.40;99832.25;342302;28;1342;-72
2022/11/30 00:13:43;;;;;;;26.00;13.52;;;;;;;9.48;79.08;99837.38;342473;28;1148;-72
2022/11/30 00:13:55;;;;;;;27.73;13.73;;;;;;;9.50;78.67;99840.78;342164;28;1881;-72
2022/11/30 00:14:08;;;;;;;26.77;13.65;;;;;;;9.52;78.96;99832.97;342148;28;1861;-72
2022/11/30 00:14:20;;;;;;;25.75;13.80;;;;;;;9.53;78.92;99835.50;342199;28;1353;-72
2022/11/30 00:14:32;;;;;;;23.38;13.52;;;;;;;9.52;78.89;99839.00;342460;28;1183;-72
2022/11/30 00:14:45;;;;;;;23.65;13.07;;;;;;;9.52;79.09;99836.41;340806;29;1820;-72
2022/11/30 00:14:57;;;;;;;24.27;13.18;;;;;;;9.53;78.92;99835.50;339880;29;1064;-72
2022/11/30 00:15:12;;;;;;;24.67;13.50;;;;;;;9.53;78.63;99837.25;339158;29;1792;-72
2022/11/30 00:15:25;;;;;;;26.45;13.90;;;;;;;9.53;78.59;99834.66;340710;29;1425;-72
2022/11/30 00:15:37;;;;;;;26.35;13.52;;;;;;;9.53;78.75;99838.09;341338;29;1117;-72
2022/11/30 00:15:49;;;;;;;23.55;13.15;;;;;;;9.55;79.02;99844.09;340482;29;1895;-72
2022/11/30 00:16:01;;;;;;;21.52;12.98;;;;;;;9.56;78.74;99834.59;340801;29;1667;-72
2022/11/30 00:16:13;;;;;;;22.42;12.90;;;;;;;9.55;78.92;99843.25;339984;29;786;-72
2022/11/30 00:16:26;;;;;;;26.58;13.32;;;;;;;9.55;78.60;99836.31;340357;29;1224;-72
2022/11/30 00:16:38;;;;;;;26.13;12.85;;;;;;;9.57;78.62;99841.47;341155;29;1169;-72
2022/11/30 00:16:50;;;;;;;22.98;12.45;;;;;;;9.55;78.99;99828.53;341800;28;1987;-72
2022/11/30 00:17:02;;;;;;;22.05;12.73;;;;;;;9.58;79.08;99835.41;342755;28;1686;-72
2022/11/30 00:17:14;;;;;;;22.13;12.73;;;;;;;9.59;79.00;99834.50;341789;28;1059;-73
2022/11/30 00:17:26;;;;;;;23.55;13.18;;;;;;;9.59;78.83;99835.34;343103;28;1056;-73
2022/11/30 00:17:44;;;;;;;24.42;13.70;;;;;;;9.59;78.92;99840.53;342383;28;1788;-73
2022/11/30 00:17:57;;;;;;;22.85;13.00;;;;;;;9.62;79.07;99838.75;342351;28;1112;-73
2022/11/30 00:18:09;;;;;;;21.67;12.32;;;;;;;9.63;78.84;99837.88;342367;28;1166;-73
2022/11/30 00:18:22;;;;;;;20.20;12.15;;;;;;;9.64;78.95;99836.97;342882;28;1321;-73
2022/11/30 00:18:34;;;;;;;21.73;12.68;;;;;;;9.64;78.77;99842.16;342158;28;1282;-73
2022/11/30 00:18:46;;;;;;;22.45;13.40;;;;;;;9.65;78.70;99841.28;340639;29;1057;-73
2022/11/30 00:18:58;;;;;;;22.52;13.20;;;;;;;9.62;78.61;99836.16;340344;28;1973;-73
2022/11/30 00:19:10;;;;;;;21.65;12.95;;;;;;;9.65;78.58;99838.69;341905;28;1830;-73
2022/11/30 00:19:22;;;;;;;24.05;12.70;;;;;;;9.66;78.51;99835.19;341419;28;1364;-73
2022/11/30 00:19:34;;;;;;;24.77;13.15;;;;;;;9.67;78.65;99836.91;342999;28;1790;-73
2022/11/30 00:19:46;;;;;;;25.88;13.80;;;;;;;9.66;78.48;99830.00;341675;28;1300;-73
2022/11/30 00:19:58;;;;;;;26.40;13.68;;;;;;;9.66;78.55;99835.19;342345;28;1217;-73
2022/11/30 00:20:12;;;;;;;24.80;13.38;;;;;;;9.67;78.56;99832.56;342246;28;1222;-73
2022/11/30 00:20:24;;;;;;;23.55;13.23;;;;;;;9.65;78.76;99833.50;342215;28;1241;-73
2022/11/30 00:20:36;;;;;;;23.85;13.52;;;;;;;9.64;78.64;99837.84;342102;28;1152;-73
2022/11/30 00:20:48;;;;;;;24.65;13.70;;;;;;;9.66;78.51;99836.06;342038;28;738;-73
2022/11/30 00:21:02;;;;;;;23.40;13.52;;;;;;;9.66;78.81;99838.66;342367;28;1935;-73
2022/11/30 00:21:16;;;;;;;23.48;13.55;;;;;;;9.67;78.74;99837.75;341522;28;1190;-73
2022/11/30 00:21:28;;;;;;;22.55;13.52;;;;;;;9.69;78.62;99840.31;342287;28;1113;-73
2022/11/30 00:21:40;;;;;;;23.10;13.77;;;;;;;9.69;78.89;99837.72;342314;28;2057;-73
2022/11/30 00:21:52;;;;;;;23.95;13.85;;;;;;;9.70;78.48;99836.81;342680;28;1228;-73
2022/11/30 00:22:04;;;;;;;25.52;14.02;;;;;;;9.70;78.70;99836.81;340953;29;1319;-73
2022/11/30 00:22:16;;;;;;;24.88;14.23;;;;;;;9.69;78.61;99835.97;341063;28;1322;-73
2022/11/30 00:22:28;;;;;;;24.57;14.17;;;;;;;9.69;78.62;99835.97;341191;29;1120;-73
2022/11/30 00:22:41;;;;;;;23.80;13.90;;;;;;;9.70;78.58;99831.63;340933;29;1332;-73
2022/11/30 00:22:54;;;;;;;23.98;13.80;;;;;;;9.70;78.57;99834.22;343026;28;1450;-73
2022/11/30 00:23:08;;;;;;;23.33;13.70;;;;;;;9.68;78.48;99838.59;343873;28;1189;-73
2022/11/30 00:23:20;;;;;;;25.25;13.25;;;;;;;9.68;78.68;99836.00;344368;28;1406;-73
2022/11/30 00:23:34;;;;;;;27.38;13.68;;;;;;;9.67;78.86;99837.75;344436;28;1519;-73
2022/11/30 00:23:46;;;;;;;26.00;14.00;;;;;;;9.67;78.51;99839.50;343650;28;1076;-73
2022/11/30 00:23:58;;;;;;;24.42;14.02;;;;;;;9.68;79.04;99841.19;343700;28;1042;-73
2022/11/30 00:24:11;;;;;;;27.08;14.23;;;;;;;9.66;78.96;99840.38;343471;28;1155;-73
2022/11/30 00:24:22;;;;;;;25.27;13.43;;;;;;;9.67;78.77;99834.31;343230;28;1357;-73
2022/11/30 00:24:34;;;;;;;25.02;13.10;;;;;;;9.67;78.47;99837.75;343663;28;1337;-73
2022/11/30 00:24:47;;;;;;;23.77;13.60;;;;;;;9.68;78.72;99838.59;342416;28;954;-73
2022/11/30 00:25:01;;;;;;;26.05;13.88;;;;;;;9.68;78.68;99833.41;341302;28;1052;-73
2022/11/30 00:25:14;;;;;;;25.50;14.05;;;;;;;9.69;78.95;99835.13;340837;29;987;-73
2022/11/30 00:25:26;;;;;;;24.02;13.70;;;;;;;9.69;78.79;99832.53;339126;28;1790;-73
2022/11/30 00:25:38;;;;;;;22.88;13.10;;;;;;;9.69;78.86;99829.94;340199;29;1466;-73
2022/11/30 00:25:50;;;;;;;24.52;13.65;;;;;;;9.70;79.04;99836.81;339999;29;1176;-73
2022/11/30 00:26:03;;;;;;;24.08;14.00;;;;;;;9.71;78.85;99834.19;340120;29;1240;-73
2022/11/30 00:26:18;;;;;;;23.90;14.32;;;;;;;9.70;78.60;99836.81;340989;29;1276;-73
2022/11/30 00:26:30;;;;;;;23.70;13.95;;;;;;;9.73;79.00;99836.75;342560;28;1993;-73
2022/11/30 00:26:42;;;;;;;23.35;13.52;;;;;;;9.72;78.82;99835.06;342439;28;1239;-73
2022/11/30 00:26:54;;;;;;;25.75;13.55;;;;;;;9.73;79.15;99834.16;341887;28;1759;-73
2022/11/30 00:27:06;;;;;;;28.10;13.70;;;;;;;9.71;78.67;99834.19;342424;28;1217;-73
2022/11/30 00:27:18;;;;;;;26.27;13.77;;;;;;;9.73;78.70;99839.34;342689;28;1291;-73
2022/11/30 00:27:31;;;;;;;25.88;13.60;;;;;;;9.72;78.94;99837.66;342520;28;2418;-73
2022/11/30 00:27:43;;;;;;;27.00;13.45;;;;;;;9.73;78.91;99836.75;343221;28;1877;-73
2022/11/30 00:27:59;;;;;;;27.75;13.77;;;;;;;9.73;78.65;99840.19;342300;28;1304;-73
2022/11/30 00:28:11;;;;;;;24.08;13.52;;;;;;;9.74;78.73;99838.47;342353;28;1839;-73
2022/11/30 00:28:23;;;;;;;22.92;13.23;;;;;;;9.72;78.65;99833.31;343139;28;1698;-73
2022/11/30 00:28:36;;;;;;;22.60;13.13;;;;;;;9.72;78.67;99835.06;343743;28;1078;-73
2022/11/30 00:28:49;;;;;;;24.48;13.35;;;;;;;9.72;78.63;99835.06;342440;28;1640;-73
2022/11/30 00:29:01;;;;;;;23.65;12.75;;;;;;;9.73;79.00;99831.56;341790;28;1263;-73
2022/11/30 00:29:13;;;;;;;21.27;12.55;;;;;;;9.73;78.47;99832.41;341000;29;1247;-73
2022/11/30 00:29:25;;;;;;;21.65;13.15;;;;;;;9.72;78.92;99835.91;342135;28;2010;-73
2022/11/30 00:29:37;;;;;;;22.17;13.48;;;;;;;9.71;78.55;99833.34;342445;28;1100;-73
2022/11/30 00:29:49;;;;;;;25.83;13.80;;;;;;;9.73;78.79;99837.59;341551;28;1103;-73
2022/11/30 00:30:01;;;;;;;27.73;13.98;;;;;;;9.71;78.57;99833.34;340899;29;1044;-73
2022/11/30 00:30:14;;;;;;;26.70;13.90;;;;;;;9.70;79.05;99836.81;341057;29;1280;-73
2022/11/30 00:30:26;;;;;;;25.20;13.63;;;;;;;9.70;78.81;99831.63;340872;29;1068;-73
2022/11/30 00:30:38;;;;;;;24.98;13.82;;;;;;;9.69;78.68;99829.94;340863;28;1749;-73
2022/11/30 00:30:57;;;;;;;24.77;13.85;;;;;;;9.69;78.90;99832.53;342554;28;1146;-73
2022/11/30 00:31:14;;;;;;;25.40;14.35;;;;;;;9.67;78.58;99829.97;342577;28;1412;-73
2022/11/30 00:31:26;;;;;;;25.33;14.38;;;;;;;9.68;78.53;99838.59;344289;28;1059;-73
2022/11/30 00:31:38;;;;;;;26.65;14.18;;;;;;;9.66;78.79;99835.19;343812;28;1268;-73
2022/11/30 00:31:50;;;;;;;26.40;14.18;;;;;;;9.67;78.99;99836.91;343655;28;1196;-73
2022/11/30 00:32:02;;;;;;;24.40;14.18;;;;;;;9.67;78.61;99832.56;343804;28;1171;-74
2022/11/30 00:32:14;;;;;;;24.92;14.38;;;;;;;9.66;78.76;99840.38;343804;28;1035;-74
2022/11/30 00:32:27;;;;;;;26.25;14.48;;;;;;;9.66;78.73;99835.19;343669;28;1326;-73
2022/11/30 00:32:39;;;;;;;28.58;14.35;;;;;;;9.64;78.94;99826.59;342534;28;2083;-73
2022/11/30 00:32:56;;;;;;;27.38;14.30;;;;;;;9.62;79.04;99837.03;342083;28;1209;-75
2022/11/30 00:33:08;;;;;;;23.75;13.75;;;;;;;9.62;79.08;99831.84;342061;28;1353;-73
2022/11/30 00:33:20;;;;;;;25.58;13.57;;;;;;;9.62;78.71;99833.56;342428;28;1194;-73
2022/11/30 00:33:34;;;;;;;25.80;13.77;;;;;;;9.62;78.80;99830.97;342307;28;1036;-73
2022/11/30 00:33:46;;;;;;;25.58;14.07;;;;;;;9.64;78.76;99831.78;341236;29;818;-73
2022/11/30 00:33:58;;;;;;;25.10;14.18;;;;;;;9.64;78.97;99842.16;341282;29;1133;-73
2022/11/30 00:34:11;;;;;;;24.77;14.07;;;;;;;9.65;78.68;99834.34;340892;29;1100;-73
2022/11/30 00:34:22;;;;;;;24.27;13.90;;;;;;;9.67;78.66;99839.50;341463;28;1189;-73
2022/11/30 00:34:34;;;;;;;24.75;13.60;;;;;;;9.68;78.62;99839.47;340843;29;1067;-73
2022/11/30 00:34:46;;;;;;;27.33;13.93;;;;;;;9.68;78.80;99836.00;340206;29;1607;-73
2022/11/30 00:35:00;;;;;;;28.55;14.00;;;;;;;9.68;78.91;99838.59;340998;29;1021;-73
2022/11/30 00:35:12;;;;;;;26.98;13.48;;;;;;;9.68;78.79;99838.59;340832;29;1112;-73
2022/11/30 00:35:24;;;;;;;25.35;13.57;;;;;;;9.69;78.78;99840.31;341038;29;1526;-73
2022/11/30 00:35:36;;;;;;;27.58;14.30;;;;;;;9.69;78.57;99835.97;339469;29;1186;-73
2022/11/30 00:35:56;;;;;;;28.35;14.50;;;;;;;9.69;78.56;99835.97;340060;29;1072;-73
2022/11/30 00:36:12;;;;;;;25.48;13.32;;;;;;;9.72;78.88;99835.06;341176;29;1036;-73
2022/11/30 00:36:24;;;;;;;25.38;13.75;;;;;;;9.72;78.72;99840.25;341722;28;1031;-73
2022/11/30 00:36:36;;;;;;;24.85;14.23;;;;;;;9.72;78.81;99837.66;341947;29;1083;-73
2022/11/30 00:36:48;;;;;;;24.10;13.95;;;;;;;9.73;78.62;99837.59;341720;28;1759;-73
2022/11/30 00:37:00;;;;;;;24.00;13.85;;;;;;;9.75;78.76;99837.56;342022;28;1842;-73
2022/11/30 00:37:13;;;;;;;24.70;13.95;;;;;;;9.76;78.88;99831.50;343893;28;729;-73
2022/11/30 00:37:25;;;;;;;24.05;13.55;;;;;;;9.75;79.06;99829.78;341190;29;1325;-73
2022/11/30 00:37:37;;;;;;;24.20;13.23;;;;;;;9.75;78.79;99834.97;342245;28;1235;-73
2022/11/30 00:37:49;;;;;;;24.50;13.27;;;;;;;9.75;78.55;99835.81;343848;28;1102;-73
2022/11/30 00:38:02;;;;;;;24.55;13.48;;;;;;;9.77;78.97;99833.19;344189;28;744;-73
2022/11/30 00:38:14;;;;;;;22.35;13.25;;;;;;;9.77;78.60;99839.22;343698;28;1168;-73
2022/11/30 00:38:26;;;;;;;20.30;13.18;;;;;;;9.75;78.82;99830.63;343667;28;1038;-73
2022/11/30 00:38:38;;;;;;;20.08;12.65;;;;;;;9.76;78.61;99826.31;343383;28;1798;-73
2022/11/30 00:38:50;;;;;;;21.70;12.65;;;;;;;9.75;78.91;99833.22;343548;28;1322;-73
2022/11/30 00:39:02;;;;;;;22.50;13.18;;;;;;;9.75;78.89;99829.78;343578;28;1162;-73
2022/11/30 00:39:14;;;;;;;22.10;13.18;;;;;;;9.77;79.17;99838.38;343766;28;1374;-73
2022/11/30 00:39:26;;;;;;;23.27;13.52;;;;;;;9.75;78.92;99829.78;343135;28;1221;-73
2022/11/30 00:39:46;;;;;;;25.23;13.90;;;;;;;9.68;78.65;99833.41;344109;28;1186;-73
2022/11/30 00:39:58;;;;;;;23.75;13.45;;;;;;;9.69;78.96;99829.94;343908;28;1602;-73
2022/11/30 00:40:11;;;;;;;24.27;13.13;;;;;;;9.62;78.83;99828.38;343477;28;1247;-73
2022/11/30 00:40:23;;;;;;;24.67;12.95;;;;;;;9.57;79.12;99833.69;342674;28;1244;-73
2022/11/30 00:40:35;;;;;;;22.65;12.88;;;;;;;9.49;79.22;99833.88;342105;28;1056;-73
2022/11/30 00:40:47;;;;;;;23.20;12.77;;;;;;;9.50;79.45;99835.59;340762;29;1203;-73
2022/11/30 00:41:00;;;;;;;24.10;13.30;;;;;;;9.52;79.25;99831.22;340873;29;1034;-73
2022/11/30 00:41:13;;;;;;;24.80;13.40;;;;;;;9.54;79.50;99828.59;339811;29;1152;-73
2022/11/30 00:41:25;;;;;;;25.65;13.80;;;;;;;9.54;79.21;99829.44;339660;29;1373;-73
2022/11/30 00:41:37;;;;;;;24.88;13.82;;;;;;;9.54;79.46;99836.38;339994;29;1058;-73
2022/11/30 00:41:49;;;;;;;26.60;13.90;;;;;;;9.55;79.57;99831.13;340197;29;1264;-73
2022/11/30 00:42:01;;;;;;;26.20;13.70;;;;;;;9.56;79.41;99830.25;338467;29;1241;-73
2022/11/30 00:42:13;;;;;;;27.60;14.38;;;;;;;9.58;79.32;99841.44;338857;29;1021;-73
2022/11/30 00:42:25;;;;;;;27.60;14.63;;;;;;;9.59;79.54;99829.31;339709;29;1231;-73
2022/11/30 00:42:37;;;;;;;27.08;14.32;;;;;;;9.58;79.12;99828.47;339777;29;1088;-73
2022/11/30 00:42:49;;;;;;;24.85;13.68;;;;;;;9.60;79.46;99831.03;340676;29;1057;-73
2022/11/30 00:43:01;;;;;;;22.42;13.25;;;;;;;9.61;79.27;99832.72;340914;29;1070;-73
2022/11/30 00:43:13;;;;;;;23.23;13.43;;;;;;;9.62;79.45;99831.84;341489;28;1089;-73
2022/11/30 00:43:25;;;;;;;24.48;13.50;;;;;;;9.64;79.20;99834.38;342411;28;1558;-73
2022/11/30 00:43:37;;;;;;;26.10;13.77;;;;;;;9.63;78.99;99830.94;342157;28;1128;-73
2022/11/30 00:43:49;;;;;;;24.67;13.60;;;;;;;9.64;79.38;99831.78;342700;28;1065;-73
2022/11/30 00:44:01;;;;;;;23.60;13.07;;;;;;;9.65;79.20;99833.50;342688;28;1238;-73
2022/11/30 00:44:13;;;;;;;22.02;12.95;;;;;;;9.65;79.00;99833.50;343777;28;1178;-73
2022/11/30 00:44:25;;;;;;;23.05;13.45;;;;;;;9.68;79.18;99828.22;344499;28;936;-73
2022/11/30 00:44:37;;;;;;;23.10;13.35;;;;;;;9.67;79.43;99834.31;343600;28;1059;-73
2022/11/30 00:44:49;;;;;;;22.42;13.25;;;;;;;9.67;78.88;99823.94;343693;28;1315;-73
2022/11/30 00:45:01;;;;;;;22.75;13.38;;;;;;;9.65;78.97;99828.31;343664;28;1023;-73
2022/11/30 00:45:13;;;;;;;23.17;13.82;;;;;;;9.65;78.97;99828.31;343651;28;1271;-73
2022/11/30 00:45:25;;;;;;;25.88;14.20;;;;;;;9.67;79.20;99836.91;343326;28;1300;-73
2022/11/30 00:45:39;;;;;;;24.83;13.93;;;;;;;9.67;79.26;99829.97;342266;28;1066;-73
2022/11/30 00:45:51;;;;;;;23.42;13.20;;;;;;;9.66;79.34;99830.88;342376;28;1165;-73
2022/11/30 00:46:04;;;;;;;25.13;13.25;;;;;;;9.64;79.18;99831.78;342382;28;1635;-73
2022/11/30 00:46:16;;;;;;;26.55;13.65;;;;;;;9.64;79.49;99831.78;342433;28;1186;-73
2022/11/30 00:46:28;;;;;;;27.83;14.10;;;;;;;9.64;79.03;99827.47;342376;28;1283;-73
2022/11/30 00:46:40;;;;;;;27.60;13.93;;;;;;;9.64;79.37;99826.59;342272;28;1064;-73
2022/11/30 00:46:52;;;;;;;27.15;13.88;;;;;;;9.66;79.22;99832.59;342214;28;1077;-73
2022/11/30 00:47:04;;;;;;;26.13;13.55;;;;;;;9.68;79.33;99833.41;342792;28;1062;-73
2022/11/30 00:47:16;;;;;;;24.30;13.07;;;;;;;9.68;78.94;99830.81;340622;29;1125;-73
2022/11/30 00:47:28;;;;;;;23.63;13.52;;;;;;;9.68;79.26;99829.09;338763;29;1291;-73
2022/11/30 00:47:40;;;;;;;24.98;13.95;;;;;;;9.67;79.06;99836.91;338775;29;1245;-73
2022/11/30 00:47:52;;;;;;;26.05;14.20;;;;;;;9.66;79.32;99835.19;339593;29;1101;-73
2022/11/30 00:48:04;;;;;;;25.27;14.02;;;;;;;9.64;79.12;99836.97;340218;29;802;-73
2022/11/30 00:48:16;;;;;;;26.20;13.77;;;;;;;9.63;79.40;99835.28;341051;29;1918;-73
2022/11/30 00:48:28;;;;;;;28.08;13.93;;;;;;;9.64;79.07;99832.66;342551;28;1390;-73
2022/11/30 00:48:40;;;;;;;29.70;14.20;;;;;;;9.66;78.93;99837.78;342048;28;1176;-73
2022/11/30 00:48:52;;;;;;;27.17;13.88;;;;;;;9.66;79.05;99830.00;342227;28;1055;-73
2022/11/30 00:49:04;;;;;;;24.80;13.45;;;;;;;9.62;79.11;99834.44;341345;28;1689;-73
2022/11/30 00:49:16;;;;;;;25.60;13.68;;;;;;;9.64;78.80;99836.97;343008;28;1076;-73
2022/11/30 00:49:28;;;;;;;26.15;13.80;;;;;;;9.64;78.93;99836.97;344048;28;1159;-73
2022/11/30 00:49:40;;;;;;;27.30;14.05;;;;;;;9.64;79.30;99840.44;343709;28;1813;-73
2022/11/30 00:49:52;;;;;;;27.17;14.18;;;;;;;9.56;79.37;99840.63;343442;28;1152;-73
2022/11/30 00:50:05;;;;;;;27.67;14.48;;;;;;;9.56;79.20;99838.03;343493;28;1060;-73
2022/11/30 00:50:17;;;;;;;27.80;14.50;;;;;;;9.57;79.60;99838.88;343255;28;1324;-73
2022/11/30 00:50:29;;;;;;;27.10;14.55;;;;;;;9.57;79.50;99842.31;342529;28;1619;-73
2022/11/30 00:50:41;;;;;;;29.67;14.25;;;;;;;9.53;79.26;99839.84;342156;28;1173;-73
2022/11/30 00:50:53;;;;;;;31.80;14.25;;;;;;;9.55;79.38;99840.66;342151;28;1036;-73
2022/11/30 00:51:08;;;;;;;34.15;13.93;;;;;;;9.56;79.61;99844.97;341234;29;1047;-73
2022/11/30 00:51:20;;;;;;;30.73;13.98;;;;;;;9.56;79.49;99840.63;341155;29;1072;-73
2022/11/30 00:51:32;;;;;;;30.33;14.65;;;;;;;9.58;79.32;99838.84;341313;29;1075;-73
2022/11/30 00:51:44;;;;;;;30.20;14.45;;;;;;;9.58;79.40;99843.19;340936;29;1075;-73
2022/11/30 00:51:56;;;;;;;27.95;14.13;;;;;;;9.59;79.62;99839.69;341567;28;1049;-73
2022/11/30 00:52:08;;;;;;;29.10;13.88;;;;;;;9.60;79.63;99842.25;342300;28;1079;-73
2022/11/30 00:52:20;;;;;;;30.73;14.00;;;;;;;9.59;79.50;99837.94;342721;28;1124;-73
2022/11/30 00:52:32;;;;;;;33.40;13.82;;;;;;;9.62;79.64;99841.34;342429;28;1076;-73
2022/11/30 00:52:44;;;;;;;36.95;14.07;;;;;;;9.63;79.27;99841.31;342638;28;1059;-73
2022/11/30 00:52:56;;;;;;;33.08;13.90;;;;;;;9.58;79.45;99838.00;342550;28;931;-73
2022/11/30 00:53:08;;;;;;;28.85;14.13;;;;;;;9.56;79.48;99840.63;342769;28;1173;-73
2022/11/30 00:53:20;;;;;;;26.00;13.73;;;;;;;9.54;79.61;99842.41;344001;28;817;-73
2022/11/30 00:53:32;;;;;;;27.45;14.30;;;;;;;9.54;79.82;99842.41;343826;28;1200;-73
2022/11/30 00:53:46;;;;;;;28.75;14.38;;;;;;;9.53;79.66;99840.69;343845;28;1022;-73
2022/11/30 00:53:58;;;;;;;32.55;14.60;;;;;;;9.53;79.57;99838.09;343482;28;1686;-73
2022/11/30 00:54:10;;;;;;;32.63;14.32;;;;;;;9.54;79.41;99842.41;342144;28;1055;-73
2022/11/30 00:54:23;;;;;;;31.45;13.90;;;;;;;9.55;79.62;99844.09;342243;28;1269;-73
2022/11/30 00:54:35;;;;;;;28.73;14.15;;;;;;;9.56;79.73;99839.78;342581;28;1055;-73
2022/11/30 00:54:47;;;;;;;30.48;14.43;;;;;;;9.56;79.42;99840.63;342125;28;1068;-73
2022/11/30 00:54:59;;;;;;;31.50;14.38;;;;;;;9.56;79.41;99844.97;340887;29;1004;-73
2022/11/30 00:55:15;;;;;;;31.23;14.93;;;;;;;9.58;79.54;99844.03;340075;29;1051;-72
2022/11/30 00:55:27;;;;;;;32.00;14.75;;;;;;;9.56;79.40;99843.22;340913;29;1300;-72
2022/11/30 00:55:42;;;;;;;33.50;14.15;;;;;;;9.57;79.56;99844.06;339805;29;1219;-72
2022/11/30 00:55:54;;;;;;;34.83;14.75;;;;;;;9.54;79.72;99845.00;339756;29;1080;-72
2022/11/30 00:56:07;;;;;;;33.33;15.05;;;;;;;9.53;79.40;99839.84;339779;29;1252;-72
2022/11/30 00:56:20;;;;;;;33.47;14.80;;;;;;;9.55;79.49;99838.91;341248;28;1755;-72
2022/11/30 00:56:32;;;;;;;32.30;14.70;;;;;;;9.54;79.59;99837.22;341991;28;1036;-72
2022/11/30 00:56:44;;;;;;;30.17;14.63;;;;;;;9.54;79.44;99842.41;342315;28;1048;-72
2022/11/30 00:56:56;;;;;;;29.13;14.00;;;;;;;9.53;79.38;99843.28;342420;28;1169;-72
2022/11/30 00:57:08;;;;;;;31.60;13.73;;;;;;;9.54;79.41;99837.22;342094;28;1104;-72
2022/11/30 00:57:20;;;;;;;31.05;14.27;;;;;;;9.54;79.55;99838.97;341025;28;1218;-72
2022/11/30 00:57:32;;;;;;;28.42;14.30;;;;;;;9.55;79.19;99838.91;341564;29;1171;-72
2022/11/30 00:57:44;;;;;;;28.60;14.13;;;;;;;9.57;79.69;99842.31;342220;28;1072;-72
2022/11/30 00:57:56;;;;;;;27.58;13.82;;;;;;;9.58;79.66;99844.03;342183;28;1245;-72
2022/11/30 00:58:09;;;;;;;26.30;13.52;;;;;;;9.60;79.59;99838.81;341970;28;1242;-72
2022/11/30 00:58:21;;;;;;;27.73;13.50;;;;;;;9.62;79.46;99843.94;342282;28;1268;-72
2022/11/30 00:58:33;;;;;;;29.63;13.73;;;;;;;9.62;79.25;99838.75;343774;28;1192;-72
2022/11/30 00:58:45;;;;;;;27.95;14.05;;;;;;;9.62;79.48;99837.03;343067;28;1060;-72
2022/11/30 00:58:57;;;;;;;26.10;13.80;;;;;;;9.64;79.56;99842.16;342295;28;1214;-72
2022/11/30 00:59:09;;;;;;;27.90;13.60;;;;;;;9.65;79.32;99836.09;342015;28;1071;-72
2022/11/30 00:59:22;;;;;;;26.67;12.95;;;;;;;9.67;79.49;99842.09;342295;28;1039;-73
2022/11/30 00:59:34;;;;;;;24.30;12.95;;;;;;;9.69;79.70;99840.31;342473;28;1257;-72
2022/11/30 00:59:46;;;;;;;23.23;12.93;;;;;;;9.68;79.71;99838.59;341944;28;1060;-72
2022/11/30 00:59:57;;;;;;;23.05;12.98;;;;;;;9.69;79.46;99835.13;340885;29;1162;-72